createdAt,value
2018-06-15T00:02:18.053Z,6.63
2018-06-15T00:07:20.175Z,6.50
2018-06-15T00:12:22.295Z,6.70
2018-06-15T00:17:24.421Z,7.23
2018-06-15T00:22:26.544Z,6.60
2018-06-15T00:27:28.634Z,7.33
2018-06-15T00:32:30.753Z,6.97
2018-06-15T00:37:32.933Z,6.93
2018-06-15T00:42:35.073Z,6.87
2018-06-15T00:47:37.164Z,6.33
2018-06-15T00:52:39.304Z,6.50
2018-06-15T00:57:43.650Z,6.70
2018-06-15T01:02:45.969Z,6.30
2018-06-15T01:07:48.089Z,6.87
2018-06-15T01:12:50.210Z,6.70
2018-06-15T01:17:52.333Z,7.43
2018-06-15T01:22:54.458Z,7.63
2018-06-15T01:27:56.585Z,7.80
2018-06-15T01:32:58.751Z,8.70
2018-06-15T01:38:00.868Z,7.90
2018-06-15T01:43:02.993Z,7.90
2018-06-15T01:48:05.338Z,7.53
2018-06-15T01:53:07.601Z,7.40
2018-06-15T01:58:09.701Z,8.80
2018-06-15T02:03:11.846Z,8.07
2018-06-15T02:08:14.521Z,8.10
2018-06-15T02:13:16.627Z,7.93
2018-06-15T02:18:18.804Z,7.70
2018-06-15T02:23:20.958Z,9.00
2018-06-15T02:28:23.162Z,8.00
2018-06-15T02:33:25.330Z,8.10
2018-06-15T02:38:27.675Z,8.40
2018-06-15T02:43:29.829Z,8.20
2018-06-15T02:48:31.990Z,8.23
2018-06-15T02:53:34.142Z,7.97
2018-06-15T02:58:36.305Z,8.30
2018-06-15T03:03:38.526Z,8.17
2018-06-15T03:08:40.671Z,7.80
2018-06-15T03:13:42.874Z,7.57
2018-06-15T03:18:45.026Z,7.20
2018-06-15T03:23:47.175Z,7.70
2018-06-15T03:28:49.323Z,8.00
2018-06-15T03:33:52.134Z,8.63
2018-06-15T03:38:54.282Z,8.70
2018-06-15T03:43:56.817Z,7.63
2018-06-15T03:48:58.959Z,7.80
2018-06-15T03:54:01.642Z,8.80
2018-06-15T03:59:04.088Z,7.97
2018-06-15T04:04:06.217Z,7.30
2018-06-15T04:09:09.103Z,7.60
2018-06-15T04:14:11.258Z,8.00
2018-06-15T04:19:13.425Z,7.83
2018-06-15T04:24:15.573Z,7.73
2018-06-15T04:29:17.713Z,7.40
2018-06-15T04:34:19.935Z,8.00
2018-06-15T04:39:22.146Z,7.50
2018-06-15T04:44:24.322Z,7.80
2018-06-15T04:49:26.614Z,8.20
2018-06-15T04:54:28.802Z,8.10
2018-06-15T04:59:31.050Z,7.93
2018-06-15T05:04:34.016Z,7.67
2018-06-15T05:09:36.194Z,7.60
2018-06-15T05:14:38.402Z,7.93
2018-06-15T05:19:40.581Z,8.23
2018-06-15T05:24:42.769Z,8.77
2018-06-15T05:29:44.926Z,9.20
2018-06-15T05:34:47.066Z,8.77
2018-06-15T05:39:49.219Z,9.10
2018-06-15T05:44:51.549Z,8.80
2018-06-15T05:49:53.710Z,8.50
2018-06-15T05:54:55.864Z,8.20
2018-06-15T05:59:58.000Z,7.93
2018-06-15T06:05:00.187Z,8.60
2018-06-15T06:10:02.427Z,7.70
2018-06-15T06:15:04.702Z,9.00
2018-06-15T06:20:07.897Z,9.03
2018-06-15T06:25:10.120Z,8.27
2018-06-15T06:30:12.278Z,7.70
2018-06-15T06:35:14.490Z,7.10
2018-06-15T06:40:16.651Z,6.47
2018-06-15T06:45:18.909Z,7.20
2018-06-15T06:50:21.098Z,7.40
2018-06-15T06:55:23.278Z,7.43
2018-06-15T07:00:26.412Z,8.80
2018-06-15T07:05:28.637Z,7.50
2018-06-15T07:10:30.849Z,6.90
2018-06-15T07:15:33.058Z,7.70
2018-06-15T07:20:35.258Z,6.80
2018-06-15T07:25:37.438Z,6.93
2018-06-15T07:30:39.601Z,7.23
2018-06-15T07:35:41.822Z,6.90
2018-06-15T07:40:44.094Z,6.10
2018-06-15T07:45:46.233Z,6.00
2018-06-15T07:50:48.387Z,5.77
2018-06-15T07:55:50.526Z,5.53
2018-06-15T08:00:52.851Z,5.87
2018-06-15T08:05:55.029Z,5.90
2018-06-15T08:10:57.201Z,5.90
2018-06-15T08:15:59.347Z,5.47
2018-06-15T08:21:01.514Z,5.40
2018-06-15T08:26:03.874Z,5.87
2018-06-15T08:31:06.036Z,4.77
2018-06-15T08:36:08.198Z,5.20
2018-06-15T08:41:10.342Z,5.10
2018-06-15T08:46:12.513Z,5.43
2018-06-15T08:51:14.693Z,5.47
2018-06-15T08:56:16.909Z,5.40
2018-06-15T09:01:19.081Z,6.60
2018-06-15T09:06:21.225Z,5.83
2018-06-15T09:11:23.376Z,5.80
2018-06-15T09:16:25.561Z,5.43
2018-06-15T09:21:27.882Z,5.23
2018-06-15T09:26:30.034Z,5.90
2018-06-15T09:31:32.171Z,5.50
2018-06-15T09:36:34.352Z,6.30
2018-06-15T09:41:36.505Z,6.00
2018-06-15T09:46:38.737Z,5.20
2018-06-15T09:51:40.864Z,5.10
2018-06-15T09:56:43.036Z,4.50
2018-06-15T10:01:45.327Z,4.70
2018-06-15T10:06:47.585Z,5.20
2018-06-15T10:11:49.750Z,4.93
2018-06-15T10:16:51.922Z,5.00
2018-06-15T10:21:54.067Z,5.07
2018-06-15T10:26:56.245Z,4.77
2018-06-15T10:31:58.415Z,4.77
2018-06-15T10:37:00.582Z,4.10
2018-06-15T10:42:02.762Z,4.47
2018-06-15T10:47:04.920Z,4.43
2018-06-15T10:52:07.054Z,4.70
2018-06-15T10:57:09.559Z,4.20
2018-06-15T11:02:11.726Z,4.20
2018-06-15T11:07:13.880Z,4.77
2018-06-15T11:12:16.040Z,4.40
2018-06-15T11:17:18.178Z,4.70
2018-06-15T11:22:20.329Z,4.50
2018-06-15T11:27:22.486Z,4.80
2018-06-15T11:32:24.677Z,3.97
2018-06-15T11:37:26.869Z,4.20
2018-06-15T11:42:29.065Z,4.30
2018-06-15T11:47:31.246Z,4.73
2018-06-15T11:52:33.406Z,4.20
2018-06-15T11:57:35.585Z,5.07
2018-06-15T12:02:37.803Z,4.47
2018-06-15T12:07:39.977Z,4.50
2018-06-15T12:12:42.133Z,4.20
2018-06-15T12:17:44.413Z,4.20
2018-06-15T12:22:46.593Z,4.10
2018-06-15T12:27:48.765Z,4.60
2018-06-15T12:32:50.945Z,3.97
2018-06-15T12:37:53.494Z,4.47
2018-06-15T12:42:55.649Z,4.10
2018-06-15T12:47:57.774Z,4.07
2018-06-15T12:52:59.917Z,4.20
2018-06-15T12:58:02.066Z,3.77
2018-06-15T13:03:04.240Z,4.00
2018-06-15T13:08:06.436Z,4.70
2018-06-15T13:13:08.571Z,3.93
2018-06-15T13:18:10.731Z,3.80
2018-06-15T13:23:12.903Z,4.00
2018-06-15T13:28:15.046Z,4.20
2018-06-15T13:33:17.233Z,4.10
2018-06-15T13:38:19.410Z,4.07
2018-06-15T13:43:21.593Z,3.77
2018-06-15T13:48:23.773Z,6.10
2018-06-15T13:53:25.958Z,4.50
2018-06-15T13:58:28.158Z,4.60
2018-06-15T14:03:30.342Z,4.53
2018-06-15T14:08:32.526Z,4.50
2018-06-15T14:13:34.715Z,4.43
2018-06-15T14:18:37.042Z,4.50
2018-06-15T14:23:39.288Z,3.90
2018-06-15T14:28:41.479Z,4.23
2018-06-15T14:33:43.682Z,4.40
2018-06-15T14:38:45.855Z,4.47
2018-06-15T14:43:48.066Z,4.80
2018-06-15T14:48:50.228Z,4.50
2018-06-15T14:53:52.402Z,4.80
2018-06-15T14:58:54.570Z,12.00
2018-06-15T15:03:56.734Z,4.70
2018-06-15T15:08:58.890Z,4.73
2018-06-15T15:14:01.105Z,4.70
2018-06-15T15:19:03.804Z,4.23
2018-06-15T15:24:06.012Z,4.30
2018-06-15T15:29:08.167Z,4.10
2018-06-15T15:34:10.361Z,4.40
2018-06-15T15:39:12.525Z,4.60
2018-06-15T15:44:14.705Z,4.70
2018-06-15T15:49:16.882Z,4.37
2018-06-15T15:54:19.074Z,4.77
2018-06-15T15:59:21.231Z,4.00
2018-06-15T16:04:23.429Z,4.57
2018-06-15T16:09:25.583Z,4.80
2018-06-15T16:14:27.761Z,4.50
2018-06-15T16:19:29.922Z,4.27
2018-06-15T16:24:32.086Z,5.03
2018-06-15T16:29:34.264Z,4.60
2018-06-15T16:34:36.802Z,5.17
2018-06-15T16:39:39.046Z,4.87
2018-06-15T16:44:41.229Z,4.70
2018-06-15T16:49:43.418Z,5.00
2018-06-15T16:54:45.940Z,4.77
2018-06-15T16:59:48.137Z,5.53
2018-06-15T17:04:50.306Z,5.23
2018-06-15T17:09:52.501Z,5.33
2018-06-15T17:14:54.621Z,4.97
2018-06-15T17:19:56.785Z,5.20
2018-06-15T17:24:59.081Z,6.80
2018-06-15T17:30:01.265Z,6.20
2018-06-15T17:35:03.512Z,5.63
2018-06-15T17:40:05.749Z,6.13
2018-06-15T17:45:07.922Z,5.67
2018-06-15T17:50:10.103Z,5.40
2018-06-15T17:55:12.402Z,5.73
2018-06-15T18:00:14.573Z,6.20
2018-06-15T18:05:16.759Z,6.30
2018-06-15T18:10:18.920Z,6.07
2018-06-15T18:15:21.115Z,5.60
2018-06-15T18:20:23.285Z,5.47
2018-06-15T18:25:25.486Z,5.50
2018-06-15T18:30:28.804Z,5.70
2018-06-15T18:35:31.555Z,6.07
2018-06-15T18:40:33.720Z,5.90
2018-06-15T18:45:35.910Z,5.63
2018-06-15T18:50:38.076Z,5.43
2018-06-15T18:55:40.378Z,6.60
2018-06-15T19:00:42.552Z,6.30
2018-06-15T19:05:44.766Z,6.73
2018-06-15T19:10:46.942Z,7.30
2018-06-15T19:15:49.168Z,6.67
2018-06-15T19:20:51.353Z,7.43
2018-06-15T19:25:53.525Z,6.80
2018-06-15T19:30:55.758Z,6.73
2018-06-15T19:35:58.000Z,6.73
2018-06-15T19:41:00.241Z,6.30
2018-06-15T19:46:02.478Z,6.77
2018-06-15T19:51:04.930Z,7.20
2018-06-15T19:56:07.150Z,6.97
2018-06-15T20:01:09.526Z,6.97
2018-06-15T20:06:11.722Z,7.00
2018-06-15T20:11:13.951Z,8.40
2018-06-15T20:16:16.168Z,7.97
2018-06-15T20:21:18.361Z,7.40
2018-06-15T20:26:20.577Z,6.87
2018-06-15T20:31:22.768Z,7.57
2018-06-15T20:36:25.037Z,7.47
2018-06-15T20:41:27.181Z,7.77
2018-06-15T20:46:29.383Z,7.47
2018-06-15T20:51:31.590Z,8.07
2018-06-15T20:56:33.763Z,7.83
2018-06-15T21:01:35.962Z,8.17
2018-06-15T21:06:39.118Z,7.53
2018-06-15T21:11:41.270Z,8.00
2018-06-15T21:16:43.458Z,8.30
2018-06-15T21:21:45.637Z,7.87
2018-06-15T21:26:47.793Z,7.33
2018-06-15T21:31:50.004Z,8.60
2018-06-15T21:36:52.161Z,7.93
2018-06-15T21:41:54.289Z,8.10
2018-06-15T21:46:56.474Z,7.87
2018-06-15T21:51:58.633Z,8.17
2018-06-15T21:57:00.784Z,8.00
2018-06-15T22:02:02.965Z,8.50
2018-06-15T22:07:05.136Z,8.57
2018-06-15T22:12:07.303Z,7.47
2018-06-15T22:17:09.431Z,7.53
2018-06-15T22:22:11.587Z,7.50
2018-06-15T22:27:13.729Z,8.23
2018-06-15T22:32:16.051Z,7.80
2018-06-15T22:37:18.178Z,7.93
2018-06-15T22:42:20.311Z,8.47
2018-06-15T22:47:22.473Z,7.73
2018-06-15T22:52:24.614Z,8.80
2018-06-15T22:57:26.756Z,9.27
2018-06-15T23:02:28.901Z,8.30
2018-06-15T23:07:31.069Z,8.87
2018-06-15T23:12:33.248Z,9.13
2018-06-15T23:17:35.413Z,10.40
2018-06-15T23:22:37.650Z,9.93
2018-06-15T23:27:39.793Z,10.23
2018-06-15T23:32:41.977Z,9.90
2018-06-15T23:37:44.138Z,10.90
2018-06-15T23:42:46.321Z,9.57
2018-06-15T23:47:48.983Z,11.10
2018-06-15T23:52:51.573Z,10.50
2018-06-15T23:57:53.749Z,9.80
